Time;durP1;ratioP1;P1;durP2;ratioP2;P2;SDS_P1;SDS_P2;PMS_P1;PMS_P2;Temp;Humidity;BMP_temperature;BMP_pressure;BME280_temperature;BME280_humidity;BME280_pressure;Samples;Min_cycle;Max_cycle;Signal;HPM_P1;HPM_P2
2021/04/02 00:01:29;;;;;;;;;;;;;;;22.73;29.87;100387.44;4416812;32;19954;-54
2021/04/02 00:03:54;;;;;;;;;;;;;;;22.79;29.73;100383.03;4416819;32;19951;-58
2021/04/02 00:06:20;;;;;;;;;;;;;;;22.78;29.74;100397.19;4417191;32;20002;-58
2021/04/02 00:08:46;;;;;;;;;;;;;;;22.70;29.84;100395.41;4415875;32;20017;-59
2021/04/02 00:11:12;;;;;;;;;;;;;;;22.65;29.86;100391.81;4416150;32;19995;-59
2021/04/02 00:13:38;;;;;;;;;;;;;;;22.69;29.77;100385.66;4417101;32;20461;-59
2021/04/02 00:16:04;;;;;;;;;;;;;;;22.71;29.73;100386.56;4416150;32;19987;-59
2021/04/02 00:18:30;;;;;;;;;;;;;;;22.70;29.72;100390.09;4405480;32;20354;-58
2021/04/02 00:20:56;;;;;;;;;;;;;;;22.62;29.87;100390.97;4401651;32;20380;-58
2021/04/02 00:23:22;;;;;;;;;;;;;;;22.63;29.84;100392.72;4411876;32;20014;-59
2021/04/02 00:25:47;;;;;;;;;;;;;;;22.66;29.72;100398.94;4417624;32;20036;-57
2021/04/02 00:28:13;;;;;;;;;;;;;;;22.66;29.72;100398.94;4416962;32;19962;-59
2021/04/02 00:30:39;;;;;;;;;;;;;;;22.60;29.77;100398.91;4420001;32;19965;-58
2021/04/02 00:33:05;;;;;;;;;;;;;;;22.54;29.83;100404.22;4419936;32;20528;-59
2021/04/02 00:35:31;;;;;;;;;;;;;;;22.58;29.82;100400.69;4419831;32;19957;-59
2021/04/02 00:37:57;;;;;;;;;;;;;;;22.43;29.92;100402.34;4420023;32;19961;-59
2021/04/02 00:40:23;;;;;;;;;;;;;;;22.46;29.90;100401.47;4419273;32;20082;-60
2021/04/02 00:42:49;;;;;;;;;;;;;;;22.44;29.88;100393.50;4419905;32;19987;-57
2021/04/02 00:45:14;;;;;;;;;;;;;;;22.44;29.89;100398.81;4419326;32;19950;-59
2021/04/02 00:47:40;;;;;;;;;;;;;;;22.37;29.95;100410.28;4414825;32;20275;-59
2021/04/02 00:50:06;;;;;;;;;;;;;;;22.39;29.89;100405.84;4404617;32;19968;-58
2021/04/02 00:52:32;;;;;;;;;;;;;;;22.40;29.81;100396.16;4413848;32;19954;-59
2021/04/02 00:54:58;;;;;;;;;;;;;;;22.39;29.76;100397.03;4403654;32;20347;-57
2021/04/02 00:57:24;;;;;;;;;;;;;;;22.36;29.86;100394.38;4403897;32;19955;-59
2021/04/02 00:59:50;;;;;;;;;;;;;;;22.40;29.75;100394.38;4419060;32;19961;-57
2021/04/02 01:02:15;;;;;;;;;;;;;;;22.35;29.75;100397.88;4420165;32;20283;-59
2021/04/02 01:04:41;;;;;;;;;;;;;;;22.35;29.78;100393.47;4418286;32;19992;-58
2021/04/02 01:07:07;;;;;;;;;;;;;;;22.40;29.56;100402.31;4403811;32;19954;-58
2021/04/02 01:09:33;;;;;;;;;;;;;;;22.33;29.69;100396.09;4417482;32;19958;-58
2021/04/02 01:11:59;;;;;;;;;;;;;;;22.32;29.70;100398.78;4419806;32;19997;-58
2021/04/02 01:14:25;;;;;;;;;;;;;;;22.35;29.59;100404.09;4418749;32;20022;-59
2021/04/02 01:16:51;;;;;;;;;;;;;;;22.40;29.47;100407.63;4418765;32;19966;-59
2021/04/02 01:19:17;;;;;;;;;;;;;;;22.30;29.55;100405.84;4409213;32;19966;-59
2021/04/02 01:21:43;;;;;;;;;;;;;;;22.38;29.50;100398.78;4404179;32;20012;-58
2021/04/02 01:24:09;;;;;;;;;;;;;;;22.40;29.37;100402.31;4412588;32;20733;-56
2021/04/02 01:26:34;;;;;;;;;;;;;;;22.35;29.37;100406.72;4419178;32;20311;-58
2021/04/02 01:29:00;;;;;;;;;;;;;;;22.28;29.46;100405.81;4419348;32;19946;-59
2021/04/02 01:31:26;;;;;;;;;;;;;;;22.31;29.43;100412.91;4417595;32;19958;-59
2021/04/02 01:33:52;;;;;;;;;;;;;;;22.45;29.07;100416.50;4412470;32;20401;-59
2021/04/02 01:36:18;;;;;;;;;;;;;;;22.43;29.13;100407.66;4403917;32;19995;-59
2021/04/02 01:38:44;;;;;;;;;;;;;;;22.41;29.17;100409.44;4407690;32;20013;-59
2021/04/02 01:41:10;;;;;;;;;;;;;;;22.38;29.21;100413.84;4418447;32;20010;-57
2021/04/02 01:43:36;;;;;;;;;;;;;;;22.37;29.20;100418.22;4419036;32;20006;-59
2021/04/02 01:46:01;;;;;;;;;;;;;;;22.29;29.37;100414.69;4419460;32;20031;-58
2021/04/02 01:48:27;;;;;;;;;;;;;;;22.30;29.25;100416.44;4415409;32;19965;-59
2021/04/02 01:50:53;;;;;;;;;;;;;;;22.34;29.17;100412.91;4404342;32;19938;-58
2021/04/02 01:53:19;;;;;;;;;;;;;;;22.30;29.20;100403.19;4404191;32;19984;-57
2021/04/02 01:55:45;;;;;;;;;;;;;;;22.34;29.07;100407.63;4419274;32;19964;-59
2021/04/02 01:58:11;;;;;;;;;;;;;;;22.29;29.13;100410.25;4417948;32;19991;-55
2021/04/02 02:00:37;;;;;;;;;;;;;;;22.26;29.07;100404.94;4417936;32;19949;-59
2021/04/02 02:03:03;;;;;;;;;;;;;;;22.24;29.19;100400.50;4418433;32;19993;-52
2021/04/02 02:05:29;;;;;;;;;;;;;;;22.26;29.19;100404.03;4417796;32;19954;-59
2021/04/02 02:07:55;;;;;;;;;;;;;;;22.24;29.09;100408.44;4417764;32;19974;-59
2021/04/02 02:10:20;;;;;;;;;;;;;;;22.24;29.19;100404.03;4417777;32;19950;-58
2021/04/02 02:12:46;;;;;;;;;;;;;;;22.21;29.09;100409.31;4419062;32;20327;-59
2021/04/02 02:15:12;;;;;;;;;;;;;;;22.17;29.24;100410.19;4417150;32;19994;-58
2021/04/02 02:17:38;;;;;;;;;;;;;;;22.18;29.21;100412.84;4417885;32;20006;-59
2021/04/02 02:20:04;;;;;;;;;;;;;;;22.18;29.15;100407.56;4409489;32;19994;-58
2021/04/02 02:22:30;;;;;;;;;;;;;;;22.22;29.15;100407.56;4403147;32;20013;-59
2021/04/02 02:24:56;;;;;;;;;;;;;;;22.18;29.10;100414.59;4410964;32;20436;-58
2021/04/02 02:27:22;;;;;;;;;;;;;;;22.15;29.25;100415.47;4417033;32;19970;-59
2021/04/02 02:29:48;;;;;;;;;;;;;;;22.14;29.18;100410.16;4418420;32;19951;-58
2021/04/02 02:32:14;;;;;;;;;;;;;;;22.10;29.16;100411.00;4417168;32;19968;-58
2021/04/02 02:34:39;;;;;;;;;;;;;;;22.11;29.15;100411.03;4418524;32;19968;-57
2021/04/02 02:37:05;;;;;;;;;;;;;;;22.06;29.31;100410.13;4418091;32;19949;-59
2021/04/02 02:39:31;;;;;;;;;;;;;;;22.06;29.18;100411.88;4417961;32;20331;-59
2021/04/02 02:41:57;;;;;;;;;;;;;;;22.04;29.29;100414.53;4418526;32;19946;-59
2021/04/02 02:44:23;;;;;;;;;;;;;;;22.09;29.22;100406.59;4417412;32;20045;-59
2021/04/02 02:46:49;;;;;;;;;;;;;;;22.03;29.03;100407.44;4418073;32;20006;-59
2021/04/02 02:49:15;;;;;;;;;;;;;;;21.98;29.37;100404.78;4416517;32;19997;-58
2021/04/02 02:51:41;;;;;;;;;;;;;;;21.99;29.29;100413.63;4417912;32;20093;-59
2021/04/02 02:54:06;;;;;;;;;;;;;;;21.99;29.22;100413.63;4417016;32;20385;-59
2021/04/02 02:56:32;;;;;;;;;;;;;;;21.97;29.31;100412.72;4417500;32;19973;-55
2021/04/02 02:58:58;;;;;;;;;;;;;;;22.02;29.17;100411.88;4417941;32;19946;-58
2021/04/02 03:01:24;;;;;;;;;;;;;;;21.99;29.37;100411.88;4415370;32;19954;-58
2021/04/02 03:03:50;;;;;;;;;;;;;;;21.96;29.21;100405.66;4416234;32;19976;-58
2021/04/02 03:06:16;;;;;;;;;;;;;;;21.96;29.28;100408.31;4417774;32;19970;-59
2021/04/02 03:08:42;;;;;;;;;;;;;;;21.86;29.58;100405.59;4417580;32;20013;-57
2021/04/02 03:11:08;;;;;;;;;;;;;;;21.89;29.33;100407.38;4416987;32;20399;-59
2021/04/02 03:13:34;;;;;;;;;;;;;;;21.85;29.40;100403.81;4418188;32;19984;-58
2021/04/02 03:16:00;;;;;;;;;;;;;;;21.86;29.33;100405.59;4417563;32;19946;-55
2021/04/02 03:18:26;;;;;;;;;;;;;;;21.88;29.36;100411.78;4416792;32;20018;-58
2021/04/02 03:20:52;;;;;;;;;;;;;;;21.87;29.36;100407.34;4418180;32;19958;-58
2021/04/02 03:23:17;;;;;;;;;;;;;;;21.93;29.33;100410.94;4416954;32;19954;-59
2021/04/02 03:25:43;;;;;;;;;;;;;;;21.90;29.18;100407.38;4416856;32;19950;-59
2021/04/02 03:28:09;;;;;;;;;;;;;;;21.84;29.47;100407.34;4411953;32;20367;-59
2021/04/02 03:30:35;;;;;;;;;;;;;;;21.83;29.35;100400.28;4417938;32;19952;-59
2021/04/02 03:33:01;;;;;;;;;;;;;;;21.78;29.44;100396.69;4418099;32;19938;-59
2021/04/02 03:35:27;;;;;;;;;;;;;;;21.76;29.62;100403.75;4417631;32;19966;-59
2021/04/02 03:37:53;;;;;;;;;;;;;;;21.74;29.47;100394.91;4417562;32;19992;-58
2021/04/02 03:40:20;;;;;;;;;;;;;;;21.78;29.46;100398.47;4417975;32;19957;-59
2021/04/02 03:42:46;;;;;;;;;;;;;;;21.79;29.36;100403.75;4411989;32;20026;-55
2021/04/02 03:45:12;;;;;;;;;;;;;;;21.83;29.35;100402.91;4401614;32;20289;-59
2021/04/02 03:47:37;;;;;;;;;;;;;;;21.84;29.35;100402.03;4412174;32;19957;-56
2021/04/02 03:50:03;;;;;;;;;;;;;;;21.77;29.50;100405.50;4417681;32;19942;-58
2021/04/02 03:52:30;;;;;;;;;;;;;;;21.73;29.49;100399.31;4417385;32;19950;-59
2021/04/02 03:54:56;;;;;;;;;;;;;;;21.74;29.57;100400.19;4416953;32;19946;-59
2021/04/02 03:57:22;;;;;;;;;;;;;;;21.68;29.39;100405.47;4403058;32;20017;-59
2021/04/02 03:59:48;;;;;;;;;;;;;;;21.74;29.38;100401.09;4401878;32;20013;-58
2021/04/02 04:02:14;;;;;;;;;;;;;;;21.71;29.50;100411.66;4413888;32;19954;-59
2021/04/02 04:04:40;;;;;;;;;;;;;;;21.72;29.36;100407.25;4416794;32;20342;-59
2021/04/02 04:07:06;;;;;;;;;;;;;;;21.74;29.43;100416.09;4407776;32;19962;-59
2021/04/02 04:09:32;;;;;;;;;;;;;;;21.69;29.49;100415.19;4415686;32;20321;-57
2021/04/02 04:11:58;;;;;;;;;;;;;;;21.75;29.41;100413.47;4411933;32;19989;-58
2021/04/02 04:14:24;;;;;;;;;;;;;;;21.74;29.31;100416.09;4415072;32;19999;-59
2021/04/02 04:16:50;;;;;;;;;;;;;;;21.74;29.37;100410.81;4417455;32;19965;-57
2021/04/02 04:19:16;;;;;;;;;;;;;;;21.75;29.25;100412.56;4417103;32;20286;-59
2021/04/02 04:21:41;;;;;;;;;;;;;;;21.72;29.34;100404.59;4417553;32;20012;-58
2021/04/02 04:24:07;;;;;;;;;;;;;;;21.65;29.52;100410.69;4416966;32;20067;-54
2021/04/02 04:26:33;;;;;;;;;;;;;;;21.67;29.39;100414.25;4417570;32;19973;-59
2021/04/02 04:28:59;;;;;;;;;;;;;;;21.69;29.37;100413.41;4416432;32;19999;-59
2021/04/02 04:31:26;;;;;;;;;;;;;;;21.67;29.38;100411.62;4414436;32;19970;-59
2021/04/02 04:33:52;;;;;;;;;;;;;;;21.66;29.46;100415.12;4418097;32;19943;-59
2021/04/02 04:36:18;;;;;;;;;;;;;;;21.65;29.26;100416.00;4417158;32;19946;-59
2021/04/02 04:38:44;;;;;;;;;;;;;;;21.60;29.58;100416.84;4417126;32;20326;-59
2021/04/02 04:41:09;;;;;;;;;;;;;;;21.60;29.29;100416.84;4416041;32;19973;-59
2021/04/02 04:43:35;;;;;;;;;;;;;;;21.61;29.50;100415.97;4417330;32;19942;-59
2021/04/02 04:46:01;;;;;;;;;;;;;;;21.60;29.51;100419.50;4415658;32;20283;-59
2021/04/02 04:48:28;;;;;;;;;;;;;;;21.59;29.45;100423.03;4413523;32;19989;-59
2021/04/02 04:50:54;;;;;;;;;;;;;;;21.62;29.37;100417.75;4416391;32;20328;-59
2021/04/02 04:53:20;;;;;;;;;;;;;;;21.59;29.57;100424.78;4416822;32;19946;-59
2021/04/02 04:55:46;;;;;;;;;;;;;;;21.60;29.42;100423.91;4417377;32;19958;-59
2021/04/02 04:58:12;;;;;;;;;;;;;;;21.60;29.46;100418.59;4416491;32;19989;-59
2021/04/02 05:00:38;;;;;;;;;;;;;;;21.58;29.43;100431.84;4416691;32;19954;-59
2021/04/02 05:03:04;;;;;;;;;;;;;;;21.59;29.46;100419.47;4416084;32;19961;-59
2021/04/02 05:05:30;;;;;;;;;;;;;;;21.56;29.52;100430.97;4416941;32;19946;-57
2021/04/02 05:07:56;;;;;;;;;;;;;;;21.50;29.69;100427.37;4416166;32;20002;-60
2021/04/02 05:10:22;;;;;;;;;;;;;;;21.55;29.50;100429.19;4417400;32;20358;-59
2021/04/02 05:12:48;;;;;;;;;;;;;;;21.54;29.54;100424.75;4417790;32;20327;-60
2021/04/02 05:15:14;;;;;;;;;;;;;;;21.57;29.47;100424.78;4418291;32;19986;-60
2021/04/02 05:17:39;;;;;;;;;;;;;;;21.51;29.59;100430.03;4420091;32;20699;-59
2021/04/02 05:20:05;;;;;;;;;;;;;;;21.46;29.61;100429.09;4420552;32;19946;-60
2021/04/02 05:22:31;;;;;;;;;;;;;;;21.49;29.59;100431.78;4420239;32;19945;-60
2021/04/02 05:24:57;;;;;;;;;;;;;;;21.52;29.57;100430.91;4420165;32;19950;-59
2021/04/02 05:27:24;;;;;;;;;;;;;;;21.48;29.56;100433.56;4419837;32;20033;-60
2021/04/02 05:29:49;;;;;;;;;;;;;;;21.50;29.38;100435.31;4419293;32;19980;-57
2021/04/02 05:32:15;;;;;;;;;;;;;;;21.48;29.56;100438.84;4420191;32;19962;-59
2021/04/02 05:34:41;;;;;;;;;;;;;;;21.50;29.53;100432.69;4420283;32;19954;-59
2021/04/02 05:37:07;;;;;;;;;;;;;;;21.42;29.51;100435.22;4419475;32;20405;-60
2021/04/02 05:39:33;;;;;;;;;;;;;;;21.39;29.70;100446.72;4419930;32;19981;-60
2021/04/02 05:41:59;;;;;;;;;;;;;;;21.42;29.60;100444.06;4419814;32;19970;-59
2021/04/02 05:44:26;;;;;;;;;;;;;;;21.43;29.53;100452.94;4418762;32;20007;-59
2021/04/02 05:46:51;;;;;;;;;;;;;;;21.43;29.59;100452.94;4417519;32;19961;-59
2021/04/02 05:49:17;;;;;;;;;;;;;;;21.46;29.56;100447.66;4418268;32;20705;-59
2021/04/02 05:51:43;;;;;;;;;;;;;;;21.45;29.54;100451.19;4418633;32;19996;-59
2021/04/02 05:54:09;;;;;;;;;;;;;;;21.45;29.58;100449.41;4417576;32;20002;-59
2021/04/02 05:56:35;;;;;;;;;;;;;;;21.39;29.65;100459.06;4418685;32;19984;-60
2021/04/02 05:59:01;;;;;;;;;;;;;;;21.41;29.68;100459.94;4418744;32;19984;-59
2021/04/02 06:01:27;;;;;;;;;;;;;;;21.41;29.67;100459.94;4417919;32;19964;-59
2021/04/02 06:03:53;;;;;;;;;;;;;;;21.41;29.61;100458.19;4418280;32;20555;-59
2021/04/02 06:06:19;;;;;;;;;;;;;;;21.45;29.53;100464.44;4419151;32;19970;-59
2021/04/02 06:08:45;;;;;;;;;;;;;;;21.42;29.56;100467.94;4419057;32;19946;-59
2021/04/02 06:11:11;;;;;;;;;;;;;;;21.45;29.52;100469.72;4415147;32;19950;-59
2021/04/02 06:13:37;;;;;;;;;;;;;;;21.42;29.60;100464.37;4409800;32;19951;-59
2021/04/02 06:16:03;;;;;;;;;;;;;;;21.43;29.58;100464.41;4403246;32;20386;-57
2021/04/02 06:18:29;;;;;;;;;;;;;;;21.45;29.61;100472.38;4416511;32;20323;-59
2021/04/02 06:20:55;;;;;;;;;;;;;;;21.45;29.57;100469.72;4419960;32;19934;-59
2021/04/02 06:23:21;;;;;;;;;;;;;;;21.41;29.57;100470.53;4418268;32;19954;-58
2021/04/02 06:25:47;;;;;;;;;;;;;;;21.36;29.71;100473.19;4418828;32;20000;-59
2021/04/02 06:28:13;;;;;;;;;;;;;;;21.38;29.73;100466.12;4419003;32;19987;-59
2021/04/02 06:30:39;;;;;;;;;;;;;;;21.38;29.72;100475.81;4418627;32;19950;-59
2021/04/02 06:33:05;;;;;;;;;;;;;;;21.39;29.67;100467.91;4418629;32;19954;-60
2021/04/02 06:35:31;;;;;;;;;;;;;;;21.41;29.58;100475.84;4417868;32;20299;-59
2021/04/02 06:37:57;;;;;;;;;;;;;;;21.40;29.67;100477.63;4418817;32;19934;-59
2021/04/02 06:40:22;;;;;;;;;;;;;;;21.39;29.69;100482.91;4417745;32;20037;-59
2021/04/02 06:42:48;;;;;;;;;;;;;;;21.39;29.72;100483.78;4418700;32;19968;-58
2021/04/02 06:45:14;;;;;;;;;;;;;;;21.36;29.68;100483.78;4416423;32;19949;-58
2021/04/02 06:47:40;;;;;;;;;;;;;;;21.44;29.61;100484.72;4416982;32;20307;-57
2021/04/02 06:50:06;;;;;;;;;;;;;;;21.40;29.65;100484.66;4417975;32;20028;-59
2021/04/02 06:52:32;;;;;;;;;;;;;;;21.41;29.68;100484.69;4419113;32;19968;-59
2021/04/02 06:54:58;;;;;;;;;;;;;;;21.35;29.75;100487.25;4418162;32;19956;-60
2021/04/02 06:57:24;;;;;;;;;;;;;;;21.37;29.64;100484.66;4417124;32;19977;-59
2021/04/02 06:59:49;;;;;;;;;;;;;;;21.38;29.68;100491.72;4418034;32;19998;-59
2021/04/02 07:02:15;;;;;;;;;;;;;;;21.38;29.60;100497.91;4418357;32;19962;-60
2021/04/02 07:04:41;;;;;;;;;;;;;;;21.33;29.77;100494.31;4418041;32;20343;-59
2021/04/02 07:07:07;;;;;;;;;;;;;;;21.33;29.81;100495.22;4417866;32;19969;-60
2021/04/02 07:09:33;;;;;;;;;;;;;;;21.36;29.72;100489.06;4418289;32;19958;-52
2021/04/02 07:11:59;;;;;;;;;;;;;;;21.14;29.74;100501.19;4418711;32;19938;-56
2021/04/02 07:14:25;;;;;;;;;;;;;;;21.08;29.53;100503.78;4417646;32;19979;-55
2021/04/02 07:16:51;;;;;;;;;;;;;;;21.15;29.82;100502.94;4417425;32;19954;-56
2021/04/02 07:19:17;;;;;;;;;;;;;;;21.28;29.67;100501.34;4418915;32;19938;-55
2021/04/02 07:21:43;;;;;;;;;;;;;;;21.30;29.55;100500.50;4419334;32;19999;-56
2021/04/02 07:24:09;;;;;;;;;;;;;;;21.31;29.53;100498.72;4417669;32;19938;-56
2021/04/02 07:26:35;;;;;;;;;;;;;;;21.26;29.62;100501.31;4415019;32;20055;-57
2021/04/02 07:29:00;;;;;;;;;;;;;;;21.22;29.80;100495.97;4417479;32;19954;-55
2021/04/02 07:31:27;;;;;;;;;;;;;;;21.21;29.72;100500.38;4416893;32;19984;-55
2021/04/02 07:33:52;;;;;;;;;;;;;;;21.27;29.69;100499.56;4418616;32;20194;-56
2021/04/02 07:36:19;;;;;;;;;;;;;;;21.18;29.76;100503.00;4417704;32;19976;-53
2021/04/02 07:38:45;;;;;;;;;;;;;;;21.10;30.22;100502.91;4417554;32;19969;-55
2021/04/02 07:41:11;;;;;;;;;;;;;;;21.08;30.00;100503.78;4417193;32;20391;-53
2021/04/02 07:43:37;;;;;;;;;;;;;;;21.07;30.40;100502.88;4418542;32;20014;-56
2021/04/02 07:46:03;;;;;;;;;;;;;;;21.02;30.33;100497.50;4410604;32;20361;-53
2021/04/02 07:48:29;;;;;;;;;;;;;;;21.24;30.08;100507.50;4414179;32;20012;-56
2021/04/02 07:50:56;;;;;;;;;;;;;;;21.27;30.10;100511.03;4415243;32;19965;-55
2021/04/02 07:53:22;;;;;;;;;;;;;;;21.11;30.33;100503.78;4409332;32;19966;-54
2021/04/02 07:55:48;;;;;;;;;;;;;;;21.10;30.25;100504.66;4402475;32;19969;-55
2021/04/02 07:58:14;;;;;;;;;;;;;;;21.15;30.10;100505.59;4414108;32;19985;-54
2021/04/02 08:00:41;;;;;;;;;;;;;;;21.19;30.47;100500.34;4413452;32;20003;-55
2021/04/02 08:03:06;;;;;;;;;;;;;;;21.22;30.26;100504.81;4414707;32;19985;-51
2021/04/02 08:05:32;;;;;;;;;;;;;;;21.22;30.19;100504.81;4406567;32;19976;-55
2021/04/02 08:07:58;;;;;;;;;;;;;;;21.29;29.93;100497.81;4416278;32;19965;-56
2021/04/02 08:10:24;;;;;;;;;;;;;;;21.24;30.40;100505.72;4415031;32;19977;-52
2021/04/02 08:12:50;;;;;;;;;;;;;;;21.28;30.45;100507.50;4413932;32;20019;-55
2021/04/02 08:15:16;;;;;;;;;;;;;;;21.31;30.17;100507.56;4413069;32;20395;-54
2021/04/02 08:17:42;;;;;;;;;;;;;;;21.29;30.28;100506.62;4412618;32;19969;-55
2021/04/02 08:20:08;;;;;;;;;;;;;;;21.31;30.19;100504.91;4413391;32;19985;-50
2021/04/02 08:22:34;;;;;;;;;;;;;;;21.27;30.18;100508.37;4414239;32;19954;-52
2021/04/02 08:25:01;;;;;;;;;;;;;;;21.37;30.23;100511.13;4413148;32;20005;-55
2021/04/02 08:27:27;;;;;;;;;;;;;;;21.27;30.09;100508.37;4410814;32;19980;-51
2021/04/02 08:30:02;;;;;;;;;;;;;;;21.26;30.17;100509.25;4414365;32;19954;-49
2021/04/02 08:32:27;;;;;;;;;;;;;;;21.25;30.26;100520.72;4414402;32;19977;-52
2021/04/02 08:34:53;;;;;;;;;;;;;;;21.31;30.22;100515.50;4414686;32;20536;-53
2021/04/02 08:37:19;;;;;;;;;;;;;;;21.41;30.16;100516.47;4414700;32;19950;-54
2021/04/02 08:39:46;;;;;;;;;;;;;;;21.29;30.43;100524.31;4415648;32;19998;-51
2021/04/02 08:42:12;;;;;;;;;;;;;;;21.28;30.29;100518.09;4415127;32;19980;-53
2021/04/02 08:44:38;;;;;;;;;;;;;;;21.26;30.59;100522.50;4413500;32;20570;-54
2021/04/02 08:47:04;;;;;;;;;;;;;;;21.18;30.66;100518.91;4414181;32;19995;-55
2021/04/02 08:49:30;;;;;;;;;;;;;;;21.24;30.76;100521.59;4417277;32;19947;-50
2021/04/02 08:51:56;;;;;;;;;;;;;;;21.32;30.90;100519.94;4418289;32;19978;-47
2021/04/02 08:54:22;;;;;;;;;;;;;;;21.41;30.48;100523.53;4418189;32;19969;-50
2021/04/02 08:56:48;;;;;;;;;;;;;;;21.32;30.56;100519.03;4417388;32;19973;-48
2021/04/02 08:59:13;;;;;;;;;;;;;;;21.38;30.42;100518.22;4417566;32;19998;-46
2021/04/02 09:01:41;;;;;;;;;;;;;;;21.39;30.34;100522.63;4417984;32;19977;-47
2021/04/02 09:04:07;;;;;;;;;;;;;;;21.42;30.19;100525.31;4418091;32;20252;-48
2021/04/02 09:06:32;;;;;;;;;;;;;;;21.39;30.38;100518.22;4417840;32;20088;-49
2021/04/02 09:08:58;;;;;;;;;;;;;;;21.37;30.48;100525.28;4417602;32;19965;-49
2021/04/02 09:11:24;;;;;;;;;;;;;;;21.32;30.44;100519.94;4417867;32;19966;-46
2021/04/02 09:13:50;;;;;;;;;;;;;;;21.33;30.56;100521.72;4418829;32;19942;-50
2021/04/02 09:16:16;;;;;;;;;;;;;;;21.36;30.73;100517.31;4416319;32;19946;-51
2021/04/02 09:18:42;;;;;;;;;;;;;;;21.36;30.53;100522.59;4416736;32;20510;-46
2021/04/02 09:21:08;;;;;;;;;;;;;;;21.38;30.41;100523.50;4417628;32;19957;-48
2021/04/02 09:23:34;;;;;;;;;;;;;;;21.43;30.27;100521.81;4418409;32;19993;-51
2021/04/02 09:26:00;;;;;;;;;;;;;;;21.49;30.34;100527.16;4415165;32;20012;-47
2021/04/02 09:28:26;;;;;;;;;;;;;;;21.45;30.28;100520.06;4416398;32;20002;-47
2021/04/02 09:30:52;;;;;;;;;;;;;;;21.48;30.30;100521.00;4415532;32;20335;-47
2021/04/02 09:33:19;;;;;;;;;;;;;;;21.54;30.21;100521.91;4415967;32;20055;-51
2021/04/02 09:35:44;;;;;;;;;;;;;;;21.55;30.14;100524.59;4415317;32;19954;-47
2021/04/02 09:38:11;;;;;;;;;;;;;;;21.51;30.20;100528.06;4414943;32;19973;-52
2021/04/02 09:40:37;;;;;;;;;;;;;;;21.57;30.07;100525.47;4415666;32;19976;-46
2021/04/02 09:43:04;;;;;;;;;;;;;;;21.58;30.04;100524.59;4415607;32;19993;-49
2021/04/02 09:45:30;;;;;;;;;;;;;;;21.62;30.08;100522.88;4414014;32;19999;-51
2021/04/02 09:47:58;;;;;;;;;;;;;;;21.57;30.11;100513.97;4416151;32;19954;-50
2021/04/02 09:50:24;;;;;;;;;;;;;;;21.56;30.04;100513.09;4416032;32;19942;-45
2021/04/02 09:52:50;;;;;;;;;;;;;;;21.54;30.13;100520.12;4416497;32;20343;-49
2021/04/02 09:55:16;;;;;;;;;;;;;;;21.59;30.01;100513.12;4415713;32;19982;-49
2021/04/02 09:57:42;;;;;;;;;;;;;;;21.61;30.00;100521.09;4415558;32;19973;-46
2021/04/02 10:00:08;;;;;;;;;;;;;;;21.62;29.97;100518.44;4415084;32;19974;-49
2021/04/02 10:02:34;;;;;;;;;;;;;;;21.63;29.99;100522.88;4417685;32;19965;-50
2021/04/02 10:05:00;;;;;;;;;;;;;;;21.61;30.05;100519.31;4412119;32;20759;-49
2021/04/02 10:07:26;;;;;;;;;;;;;;;21.59;30.05;100514.87;4415102;32;19950;-47
2021/04/02 10:09:52;;;;;;;;;;;;;;;21.55;30.16;100519.28;4415585;32;19961;-48
2021/04/02 10:12:18;;;;;;;;;;;;;;;21.62;30.02;100515.81;4415474;32;19978;-52
2021/04/02 10:14:44;;;;;;;;;;;;;;;21.59;30.06;100507.81;4414289;32;20066;-49
2021/04/02 10:17:11;;;;;;;;;;;;;;;21.62;30.08;100507.84;4413772;32;20009;-49
2021/04/02 10:19:36;;;;;;;;;;;;;;;21.56;30.11;100505.16;4415529;32;19958;-46
2021/04/02 10:22:02;;;;;;;;;;;;;;;21.54;30.22;100508.66;4414552;32;20006;-49
2021/04/02 10:24:28;;;;;;;;;;;;;;;21.53;30.25;100507.75;4412233;32;19986;-50
2021/04/02 10:26:56;;;;;;;;;;;;;;;21.50;30.36;100505.09;4415223;32;20012;-49
2021/04/02 10:29:22;;;;;;;;;;;;;;;21.44;30.45;100499.75;4414263;32;19991;-50
2021/04/02 10:31:48;;;;;;;;;;;;;;;21.46;30.42;100498.00;4415033;32;20562;-49
2021/04/02 10:34:14;;;;;;;;;;;;;;;21.43;30.47;100500.63;4414411;32;19993;-50
2021/04/02 10:36:40;;;;;;;;;;;;;;;21.52;30.35;100499.81;4414536;32;19976;-53
2021/04/02 10:39:06;;;;;;;;;;;;;;;21.45;30.47;100490.91;4413727;32;19954;-50
2021/04/02 10:41:32;;;;;;;;;;;;;;;21.46;30.46;100490.03;4414950;32;19985;-50
2021/04/02 10:43:58;;;;;;;;;;;;;;;21.44;30.52;100491.78;4410091;32;20040;-49
2021/04/02 10:46:24;;;;;;;;;;;;;;;21.45;30.49;100488.28;4397576;32;19994;-47
2021/04/02 10:48:50;;;;;;;;;;;;;;;21.41;30.54;100486.44;4410779;32;20023;-49
2021/04/02 10:51:17;;;;;;;;;;;;;;;21.42;30.52;100485.56;4413974;32;19958;-45
2021/04/02 10:53:43;;;;;;;;;;;;;;;21.41;30.54;100475.84;4414166;32;20052;-51
2021/04/02 10:56:09;;;;;;;;;;;;;;;21.39;30.59;100478.50;4413597;32;20014;-50
2021/04/02 10:58:35;;;;;;;;;;;;;;;21.39;30.63;100477.59;4411428;32;19951;-47
2021/04/02 11:01:01;;;;;;;;;;;;;;;21.39;30.63;100467.91;4409672;32;19993;-50
2021/04/02 11:03:27;;;;;;;;;;;;;;;21.44;30.56;100475.91;4412137;32;19970;-50
2021/04/02 11:05:53;;;;;;;;;;;;;;;21.45;30.52;100482.97;4414210;32;20049;-48
2021/04/02 11:08:19;;;;;;;;;;;;;;;21.48;30.48;100477.69;4412658;32;20005;-48
2021/04/02 11:10:45;;;;;;;;;;;;;;;21.49;30.46;100468.88;4414141;32;19989;-49
2021/04/02 11:13:10;;;;;;;;;;;;;;;21.48;30.50;100475.94;4413697;32;19961;-48
2021/04/02 11:15:36;;;;;;;;;;;;;;;21.48;30.53;100473.28;4413725;32;20010;-49
2021/04/02 11:18:02;;;;;;;;;;;;;;;21.45;30.56;100473.25;4413428;32;19966;-47
2021/04/02 11:20:29;;;;;;;;;;;;;;;21.48;30.57;100461.78;4414221;32;20337;-50
2021/04/02 11:22:55;;;;;;;;;;;;;;;21.50;30.51;100465.34;4415529;32;20063;-46
2021/04/02 11:25:21;;;;;;;;;;;;;;;21.56;30.47;100461.84;4414643;32;20411;-48
2021/04/02 11:27:47;;;;;;;;;;;;;;;21.52;30.50;100458.28;4412554;32;19996;-48
2021/04/02 11:30:13;;;;;;;;;;;;;;;21.53;30.50;100454.75;4413578;32;20030;-48
2021/04/02 11:32:39;;;;;;;;;;;;;;;21.54;30.46;100445.94;4415164;32;20012;-48
2021/04/02 11:35:04;;;;;;;;;;;;;;;21.58;30.43;100455.72;4414418;32;19977;-46
2021/04/02 11:37:30;;;;;;;;;;;;;;;21.58;30.41;100455.72;4409006;32;19962;-51
2021/04/02 11:39:56;;;;;;;;;;;;;;;21.59;30.40;100454.84;4414912;32;19985;-48
2021/04/02 11:42:22;;;;;;;;;;;;;;;21.62;30.38;100453.97;4400290;32;20029;-52
2021/04/02 11:44:48;;;;;;;;;;;;;;;21.62;30.41;100446.91;4414903;32;20060;-47
2021/04/02 11:47:14;;;;;;;;;;;;;;;21.62;30.47;100443.38;4412635;32;19961;-50
2021/04/02 11:49:41;;;;;;;;;;;;;;;21.62;30.46;100440.72;4414909;32;19954;-47
2021/04/02 11:52:07;;;;;;;;;;;;;;;21.63;30.44;100440.72;4413292;32;19989;-53
2021/04/02 11:54:33;;;;;;;;;;;;;;;21.67;30.47;100440.78;4415415;32;19997;-48
2021/04/02 11:56:58;;;;;;;;;;;;;;;21.67;30.42;100436.38;4414771;32;19973;-47
2021/04/02 11:59:24;;;;;;;;;;;;;;;21.68;30.40;100432.84;4413719;32;19973;-49
2021/04/02 12:01:50;;;;;;;;;;;;;;;21.69;30.43;100423.16;4414948;32;20374;-45
2021/04/02 12:04:16;;;;;;;;;;;;;;;21.69;30.41;100424.00;4411928;32;19950;-47
2021/04/02 12:06:42;;;;;;;;;;;;;;;21.69;30.45;100429.31;4413649;32;19962;-48
2021/04/02 12:09:10;;;;;;;;;;;;;;;21.70;30.41;100420.47;4414033;32;19962;-47
2021/04/02 12:11:36;;;;;;;;;;;;;;;21.70;30.40;100414.31;4413385;32;19995;-45
2021/04/02 12:14:02;;;;;;;;;;;;;;;21.70;30.44;100414.31;4412685;32;20373;-46
2021/04/02 12:16:28;;;;;;;;;;;;;;;21.79;30.24;100411.69;4412960;32;20042;-49
2021/04/02 12:18:54;;;;;;;;;;;;;;;21.79;30.32;100403.75;4413099;32;20382;-47
2021/04/02 12:21:20;;;;;;;;;;;;;;;21.71;30.43;100403.69;4412487;32;19954;-50
2021/04/02 12:23:46;;;;;;;;;;;;;;;21.74;30.40;100403.75;4415912;32;20010;-49
2021/04/02 12:26:12;;;;;;;;;;;;;;;21.79;30.38;100403.75;4415883;32;20019;-51
2021/04/02 12:28:38;;;;;;;;;;;;;;;21.70;30.51;100388.69;4417816;32;19969;-51